Time;durP1;ratioP1;P1;durP2;ratioP2;P2;SDS_P1;SDS_P2;PMS_P1;PMS_P2;Temp;Humidity;BMP_temperature;BMP_pressure;BME280_temperature;BME280_humidity;BME280_pressure;Samples;Min_cycle;Max_cycle;Signal;HPM_P1;HPM_P2
2022/06/28 00:02:02;;;;;;;14.75;4.93;;;25.20;99.90;;;;;;6222147;23;20594;-92
2022/06/28 00:04:29;;;;;;;13.38;4.43;;;25.10;99.90;;;;;;6224131;23;20005;-93
2022/06/28 00:06:59;;;;;;;14.05;5.20;;;25.10;99.90;;;;;;6224259;23;20011;-92
2022/06/28 00:09:29;;;;;;;13.05;4.60;;;25.20;99.90;;;;;;6222387;23;20099;-93
2022/06/28 00:11:57;;;;;;;15.60;4.82;;;25.10;99.90;;;;;;6171979;23;20348;-93
2022/06/28 00:17:09;;;;;;;14.18;4.22;;;25.10;99.90;;;;;;6197268;23;20011;-89
2022/06/28 00:19:36;;;;;;;13.60;5.15;;;25.00;99.90;;;;;;6224179;23;20001;-94
2022/06/28 00:22:03;;;;;;;13.98;4.72;;;24.90;99.90;;;;;;6238118;23;20008;-93
2022/06/28 00:24:30;;;;;;;10.73;4.68;;;24.80;99.90;;;;;;6236156;23;20414;-91
2022/06/28 00:27:01;;;;;;;14.30;5.82;;;24.80;99.90;;;;;;6206965;23;20078;-92
2022/06/28 00:29:31;;;;;;;13.35;4.97;;;24.80;99.90;;;;;;6229765;23;20012;-92
2022/06/28 00:32:20;;;;;;;16.40;5.50;;;24.70;99.90;;;;;;6238702;23;20011;-92
2022/06/28 00:34:47;;;;;;;17.05;4.60;;;24.70;99.90;;;;;;6213848;23;20018;-91
2022/06/28 00:37:16;;;;;;;16.65;5.35;;;24.70;99.90;;;;;;6209435;23;20011;-91
2022/06/28 00:40:00;;;;;;;15.23;4.82;;;24.70;99.90;;;;;;6201123;23;20155;-93
2022/06/28 00:42:27;;;;;;;18.55;5.47;;;24.60;99.90;;;;;;6172484;23;20006;-93
2022/06/28 00:44:58;;;;;;;13.38;5.10;;;24.60;99.90;;;;;;6174290;23;20005;-91
2022/06/28 00:47:27;;;;;;;16.08;5.40;;;24.60;99.90;;;;;;6173103;23;20013;-92
2022/06/28 00:50:03;;;;;;;17.38;5.78;;;24.50;99.90;;;;;;6170242;23;20009;-91
2022/06/28 00:52:36;;;;;;;14.93;5.40;;;24.50;99.90;;;;;;6179519;23;20005;-91
2022/06/28 00:57:51;;;;;;;12.27;5.22;;;24.40;99.90;;;;;;6240525;22;20051;-91
2022/06/28 01:00:21;;;;;;;15.43;4.80;;;24.50;99.90;;;;;;6169018;23;20016;-92
2022/06/28 01:02:50;;;;;;;13.55;5.15;;;24.50;99.90;;;;;;6202165;23;20008;-91
2022/06/28 01:05:20;;;;;;;20.10;5.78;;;24.50;99.90;;;;;;6210941;23;20004;-92
2022/06/28 01:07:55;;;;;;;15.45;4.93;;;24.50;99.90;;;;;;6218255;23;20060;-93
2022/06/28 01:10:30;;;;;;;16.33;5.35;;;24.50;99.90;;;;;;6216015;23;20026;-92
2022/06/28 01:13:04;;;;;;;14.32;4.97;;;24.50;99.90;;;;;;6214546;23;20008;-91
2022/06/28 01:15:40;;;;;;;16.77;4.88;;;24.40;99.90;;;;;;6182674;23;20053;-92
2022/06/28 01:18:13;;;;;;;13.82;5.85;;;24.40;99.90;;;;;;6208246;23;20004;-93
2022/06/28 01:20:46;;;;;;;18.98;5.20;;;24.40;99.90;;;;;;6222650;23;19995;-93
2022/06/28 01:23:48;;;;;;;9.27;5.03;;;24.40;99.90;;;;;;6235882;23;20043;-93
2022/06/28 01:26:39;;;;;;;18.63;4.97;;;24.50;99.90;;;;;;6244917;23;20016;-93
2022/06/28 01:29:11;;;;;;;10.80;4.68;;;24.40;99.90;;;;;;6216818;23;20016;-93
2022/06/28 01:31:56;;;;;;;14.35;5.32;;;24.30;99.90;;;;;;6245773;23;20000;-93
2022/06/28 01:34:32;;;;;;;15.63;5.22;;;24.30;99.90;;;;;;6204560;23;20012;-95
2022/06/28 01:37:02;;;;;;;16.77;5.50;;;24.30;99.90;;;;;;6175324;23;20009;-94
2022/06/28 01:39:32;;;;;;;15.05;5.32;;;24.30;99.90;;;;;;6173791;23;20005;-93
2022/06/28 01:42:05;;;;;;;11.73;5.65;;;24.20;99.90;;;;;;6173803;23;20005;-92
2022/06/28 01:45:04;;;;;;;11.70;5.22;;;24.20;99.90;;;;;;6171272;23;20012;-91
2022/06/28 01:48:47;;;;;;;;;;;;;;;;;;;;;
2022/06/28 01:51:14;;;;;;;13.88;5.60;;;24.00;99.90;;;;;;6162057;23;20434;-93
2022/06/28 01:53:52;;;;;;;14.38;5.45;;;24.00;99.90;;;;;;6160866;23;20013;-91
2022/06/28 01:56:33;;;;;;;14.18;5.30;;;23.90;99.90;;;;;;6161050;23;20017;-91
2022/06/28 01:59:29;;;;;;;15.75;6.35;;;23.90;99.90;;;;;;6164375;23;20182;-93
2022/06/28 02:02:01;;;;;;;14.02;6.28;;;24.10;99.90;;;;;;6165929;23;20009;-90
2022/06/28 02:04:41;;;;;;;16.50;5.55;;;24.10;99.90;;;;;;6173601;23;20031;-91
2022/06/28 02:07:08;;;;;;;14.50;4.95;;;24.00;99.90;;;;;;6219053;23;20016;-90
2022/06/28 02:09:41;;;;;;;13.30;5.60;;;24.00;99.90;;;;;;6202826;23;20008;-89
2022/06/28 02:12:09;;;;;;;12.18;5.25;;;24.10;99.90;;;;;;6217277;23;20004;-91
2022/06/28 02:14:35;;;;;;;13.18;5.72;;;24.00;99.90;;;;;;6198065;23;20028;-90
2022/06/28 02:17:03;;;;;;;14.93;5.30;;;24.00;99.90;;;;;;6229270;23;20005;-91
2022/06/28 02:19:35;;;;;;;13.38;5.20;;;23.90;99.90;;;;;;6230299;23;20023;-91
2022/06/28 02:22:04;;;;;;;14.90;5.57;;;23.90;99.90;;;;;;6196327;23;20009;-91
2022/06/28 02:24:32;;;;;;;10.50;4.80;;;23.90;99.90;;;;;;6195569;23;20083;-90
2022/06/28 02:27:00;;;;;;;11.50;5.45;;;24.00;99.90;;;;;;6199946;23;20035;-91
2022/06/28 02:29:29;;;;;;;14.45;5.88;;;23.90;99.90;;;;;;6197104;23;20068;-90
2022/06/28 02:31:55;;;;;;;15.80;5.28;;;23.80;99.90;;;;;;6195673;23;20009;-90
2022/06/28 02:42:38;;;;;;;13.13;5.38;;;23.80;99.90;;;;;;6221323;23;20008;-91
2022/06/28 02:45:11;;;;;;;22.02;5.93;;;23.80;99.90;;;;;;6206317;23;20056;-92
2022/06/28 02:47:43;;;;;;;10.93;5.25;;;23.70;99.90;;;;;;6232336;23;20035;-91
2022/06/28 02:50:10;;;;;;;14.35;5.60;;;23.70;99.90;;;;;;6225943;23;20120;-91
2022/06/28 02:52:42;;;;;;;16.17;5.32;;;23.80;99.90;;;;;;6203317;23;20027;-92
2022/06/28 02:55:18;;;;;;;15.50;6.00;;;23.80;99.90;;;;;;6199440;23;20013;-91
2022/06/28 02:57:46;;;;;;;13.63;6.15;;;23.80;99.90;;;;;;6228307;23;20091;-91
2022/06/28 03:00:16;;;;;;;17.35;7.00;;;23.70;99.90;;;;;;6226838;23;20077;-90
2022/06/28 03:02:45;;;;;;;15.52;7.13;;;23.70;99.90;;;;;;6219862;23;20465;-91
2022/06/28 03:05:17;;;;;;;15.65;7.63;;;23.70;99.90;;;;;;6208535;23;20027;-90
2022/06/28 03:07:44;;;;;;;21.33;10.85;;;23.70;99.90;;;;;;6233323;23;20063;-92
2022/06/28 03:10:12;;;;;;;22.17;13.38;;;23.70;99.90;;;;;;6199653;23;20007;-91
2022/06/28 03:12:40;;;;;;;34.42;19.45;;;23.70;99.90;;;;;;6192516;23;20004;-93
2022/06/28 03:15:11;;;;;;;33.47;19.55;;;23.70;99.90;;;;;;6198780;23;20001;-91
2022/06/28 03:17:42;;;;;;;37.25;22.27;;;23.60;99.90;;;;;;6204622;23;20012;-91
2022/06/28 03:20:11;;;;;;;39.65;23.67;;;23.60;99.90;;;;;;6204165;23;20009;-91
2022/06/28 03:22:38;;;;;;;36.38;24.77;;;23.60;99.90;;;;;;6194938;23;20083;-91
2022/06/28 03:25:06;;;;;;;44.88;28.08;;;23.70;99.90;;;;;;6192378;23;20091;-92
2022/06/28 03:27:33;;;;;;;48.03;29.25;;;23.70;99.90;;;;;;6192065;23;20009;-92
2022/06/28 03:30:01;;;;;;;51.17;30.75;;;23.80;99.90;;;;;;6193543;23;20015;-91
2022/06/28 03:32:30;;;;;;;59.67;35.72;;;23.70;99.90;;;;;;6193472;23;20001;-93
2022/06/28 03:34:58;;;;;;;63.72;41.92;;;23.80;99.90;;;;;;6192372;23;20012;-93
2022/06/28 03:37:26;;;;;;;174.20;123.15;;;23.80;99.90;;;;;;6193053;23;20019;-93
2022/06/28 03:39:58;;;;;;;216.52;150.85;;;23.90;99.90;;;;;;6195199;23;20020;-93
2022/06/28 03:42:25;;;;;;;130.35;92.82;;;24.10;99.90;;;;;;6196144;23;20028;-93
2022/06/28 03:44:55;;;;;;;111.72;79.18;;;24.20;99.90;;;;;;6195891;23;20013;-94
2022/06/28 03:47:23;;;;;;;145.52;98.35;;;24.20;99.90;;;;;;6194036;23;20012;-92
2022/06/28 03:49:57;;;;;;;136.75;97.75;;;24.20;99.90;;;;;;6219184;23;20001;-92
2022/06/28 03:52:43;;;;;;;108.30;70.95;;;24.30;99.90;;;;;;6218948;23;20015;-91
2022/06/28 03:55:13;;;;;;;92.57;56.78;;;24.50;99.90;;;;;;6218652;23;20083;-92
2022/06/28 03:57:45;;;;;;;77.55;51.00;;;24.60;99.90;;;;;;6184930;22;20020;-92
2022/06/28 04:00:14;;;;;;;80.80;50.35;;;24.80;99.90;;;;;;6182286;23;20009;-94
2022/06/28 04:02:44;;;;;;;81.10;54.72;;;24.90;99.90;;;;;;6202795;23;20012;-93
2022/06/28 04:05:25;;;;;;;89.82;64.10;;;24.90;99.90;;;;;;6193165;23;20009;-93
2022/06/28 04:07:53;;;;;;;97.10;65.78;;;25.00;99.90;;;;;;6192669;23;20386;-93
2022/06/28 04:10:28;;;;;;;83.90;56.70;;;25.10;99.90;;;;;;6187287;23;20102;-93
2022/06/28 04:13:01;;;;;;;87.97;58.67;;;25.00;99.90;;;;;;6162249;23;20144;-93
2022/06/28 04:15:28;;;;;;;114.60;59.78;;;25.00;99.90;;;;;;6137847;23;20106;-92
2022/06/28 04:18:02;;;;;;;98.55;60.88;;;24.90;99.90;;;;;;6139432;23;20064;-92
2022/06/28 04:20:33;;;;;;;86.30;54.13;;;25.00;99.90;;;;;;6163914;23;20017;-93
2022/06/28 04:23:04;;;;;;;72.10;48.10;;;25.00;99.90;;;;;;6139121;23;20088;-92
2022/06/28 04:25:33;;;;;;;59.20;38.67;;;25.10;99.90;;;;;;6138879;23;20382;-94
2022/06/28 04:28:10;;;;;;;53.90;34.38;;;25.20;99.90;;;;;;6140534;23;20008;-92
2022/06/28 04:30:40;;;;;;;49.88;31.45;;;25.40;99.90;;;;;;6139093;23;20009;-92
2022/06/28 04:33:08;;;;;;;52.13;34.17;;;25.60;99.90;;;;;;6162095;23;20013;-92
2022/06/28 04:35:35;;;;;;;58.63;34.83;;;25.70;99.90;;;;;;6138611;23;20029;-93
2022/06/28 04:38:03;;;;;;;48.80;32.47;;;25.90;99.90;;;;;;6162082;23;20089;-92
2022/06/28 04:40:43;;;;;;;49.42;28.45;;;26.20;99.90;;;;;;6139929;23;20009;-94
2022/06/28 04:43:29;;;;;;;40.55;25.65;;;26.60;99.90;;;;;;6142393;23;20039;-92
2022/06/28 04:45:56;;;;;;;35.72;18.98;;;27.10;99.90;;;;;;6177432;23;20009;-93
2022/06/28 04:48:29;;;;;;;41.28;20.77;;;27.50;99.90;;;;;;6180741;23;19988;-93
2022/06/28 04:51:10;;;;;;;38.58;21.50;;;28.00;99.90;;;;;;6197225;23;20004;-93
2022/06/28 04:53:49;;;;;;;26.98;18.40;;;28.60;99.90;;;;;;6192433;23;20005;-92
2022/06/28 04:56:20;;;;;;;26.42;17.27;;;29.30;99.90;;;;;;6172598;23;20084;-93
2022/06/28 04:58:49;;;;;;;29.35;18.02;;;29.50;99.90;;;;;;6197681;23;20012;-92
2022/06/28 05:01:16;;;;;;;26.33;17.10;;;30.10;99.90;;;;;;6196991;23;20338;-93
2022/06/28 05:03:46;;;;;;;28.10;16.95;;;30.10;99.90;;;;;;6198225;23;20438;-93
2022/06/28 05:06:35;;;;;;;23.75;16.42;;;30.20;99.90;;;;;;6226771;23;20035;-91
2022/06/28 05:09:09;;;;;;;26.38;15.40;;;30.50;99.90;;;;;;6223417;23;20012;-93
2022/06/28 05:11:37;;;;;;;28.67;16.75;;;30.90;99.90;;;;;;6197958;23;20385;-93
2022/06/28 05:14:24;;;;;;;37.38;17.17;;;31.40;99.90;;;;;;6211458;23;20434;-93
2022/06/28 05:16:50;;;;;;;43.63;15.95;;;32.00;99.90;;;;;;6197842;23;20015;-92
2022/06/28 05:19:20;;;;;;;40.17;17.13;;;32.30;99.90;;;;;;6198608;23;20004;-93
2022/06/28 05:21:47;;;;;;;45.40;19.05;;;32.60;99.90;;;;;;6197653;23;20008;-92
2022/06/28 05:24:14;;;;;;;46.15;20.05;;;33.00;99.90;;;;;;6198601;23;20015;-93
2022/06/28 05:26:43;;;;;;;46.08;18.23;;;33.50;99.90;;;;;;6199446;23;20354;-94
2022/06/28 05:29:14;;;;;;;46.33;20.60;;;33.80;99.90;;;;;;6199366;23;20005;-92
2022/06/28 05:31:42;;;;;;;51.88;20.67;;;34.00;99.90;;;;;;6200662;23;20028;-93
2022/06/28 05:34:09;;;;;;;36.10;19.40;;;34.30;99.90;;;;;;6198842;23;20039;-95
2022/06/28 05:36:39;;;;;;;34.50;17.80;;;34.30;99.90;;;;;;6224558;23;20011;-94
2022/06/28 05:39:08;;;;;;;26.00;18.35;;;35.10;99.90;;;;;;6228424;22;20023;-93
2022/06/28 05:41:37;;;;;;;35.67;18.02;;;35.00;99.90;;;;;;6234718;23;20007;-93
2022/06/28 05:44:04;;;;;;;26.98;18.17;;;34.90;99.90;;;;;;6207263;23;20035;-92
2022/06/28 05:46:32;;;;;;;25.02;16.58;;;34.90;99.90;;;;;;6203611;23;20000;-94
2022/06/28 05:49:00;;;;;;;27.23;17.45;;;35.20;99.90;;;;;;6202492;23;20035;-94
2022/06/28 05:51:28;;;;;;;24.08;17.33;;;35.90;99.90;;;;;;6197833;23;20008;-93
2022/06/28 05:53:56;;;;;;;21.80;15.68;;;36.40;99.90;;;;;;6198323;23;20012;-94
2022/06/28 05:56:23;;;;;;;24.33;14.85;;;36.90;99.90;;;;;;6197548;22;20007;-93
2022/06/28 05:58:50;;;;;;;20.30;13.20;;;37.20;99.90;;;;;;6225598;23;20115;-94
2022/06/28 06:01:17;;;;;;;21.48;13.88;;;37.20;99.90;;;;;;6228339;23;20092;-94
2022/06/28 06:03:44;;;;;;;22.67;13.57;;;37.30;99.90;;;;;;6195278;23;20005;-93
2022/06/28 06:06:11;;;;;;;26.40;11.40;;;37.30;99.90;;;;;;6205315;23;20008;-94
2022/06/28 06:08:38;;;;;;;22.92;11.68;;;37.50;99.90;;;;;;6204195;23;20020;-93
2022/06/28 06:11:08;;;;;;;17.42;11.50;;;37.60;99.90;;;;;;6206934;23;20008;-93
2022/06/28 06:13:37;;;;;;;15.90;11.32;;;37.80;99.90;;;;;;6215404;23;20011;-94
2022/06/28 06:16:05;;;;;;;12.48;11.20;;;38.20;99.90;;;;;;6228829;23;20325;-94
2022/06/28 06:18:33;;;;;;;13.07;10.98;;;38.40;98.30;;;;;;6235861;23;20012;-92
2022/06/28 06:21:00;;;;;;;11.43;10.30;;;38.50;98.00;;;;;;6204347;23;20000;-93
2022/06/28 06:23:27;;;;;;;11.20;10.30;;;38.60;97.40;;;;;;6214938;23;20015;-93
2022/06/28 06:26:04;;;;;;;11.47;9.87;;;38.60;97.60;;;;;;6241163;23;20035;-94
2022/06/28 06:28:35;;;;;;;10.27;9.48;;;39.20;95.30;;;;;;6188175;22;20227;-93
2022/06/28 06:31:09;;;;;;;10.45;9.55;;;39.10;94.60;;;;;;6219276;23;20004;-93
2022/06/28 06:34:02;;;;;;;10.60;9.57;;;39.10;93.50;;;;;;6225122;23;20028;-94
2022/06/28 06:36:47;;;;;;;10.52;9.40;;;39.20;92.30;;;;;;6215865;23;20004;-94
2022/06/28 06:39:17;;;;;;;10.35;9.65;;;39.30;91.70;;;;;;6233535;23;20111;-93
2022/06/28 06:41:45;;;;;;;10.43;9.70;;;39.70;91.40;;;;;;6208561;23;20018;-94
2022/06/28 06:44:12;;;;;;;10.80;9.90;;;39.60;90.60;;;;;;6202634;23;20008;-94
2022/06/28 06:46:42;;;;;;;11.70;10.57;;;39.20;91.10;;;;;;6179393;23;20022;-93
2022/06/28 06:49:09;;;;;;;16.75;9.77;;;39.20;91.00;;;;;;6205211;23;20012;-94
2022/06/28 06:51:36;;;;;;;12.27;10.30;;;39.30;90.30;;;;;;6201383;23;20038;-92
2022/06/28 06:54:03;;;;;;;10.98;9.93;;;39.30;90.80;;;;;;6202848;23;20381;-95
2022/06/28 06:56:31;;;;;;;12.45;10.63;;;39.60;90.60;;;;;;6190279;23;20008;-93
2022/06/28 06:58:58;;;;;;;11.25;10.15;;;40.40;88.90;;;;;;6195669;23;20016;-93
2022/06/28 07:01:28;;;;;;;11.10;9.68;;;40.50;86.10;;;;;;6193945;23;20403;-93
2022/06/28 07:03:57;;;;;;;11.90;10.35;;;40.20;85.50;;;;;;6220467;23;20004;-93
2022/06/28 07:06:24;;;;;;;12.68;10.10;;;40.90;79.30;;;;;;6196804;23;20356;-95
2022/06/28 07:08:52;;;;;;;11.05;10.18;;;40.20;79.90;;;;;;6199357;23;20013;-92
2022/06/28 07:11:21;;;;;;;11.30;10.20;;;40.10;81.20;;;;;;6199654;23;20009;-94
2022/06/28 07:13:47;;;;;;;14.00;10.30;;;39.80;81.20;;;;;;6197500;23;20087;-93
2022/06/28 07:16:14;;;;;;;10.98;10.05;;;40.30;81.80;;;;;;6201533;23;20428;-94
2022/06/28 07:18:42;;;;;;;10.80;9.85;;;40.40;82.60;;;;;;6201635;23;20009;-93
2022/06/28 07:21:11;;;;;;;11.50;9.82;;;41.00;79.10;;;;;;6197652;23;20001;-92
2022/06/28 07:23:38;;;;;;;10.75;9.70;;;41.20;79.20;;;;;;6223794;23;20320;-91
2022/06/28 07:26:05;;;;;;;11.23;10.10;;;41.50;79.40;;;;;;6197905;23;20011;-93
2022/06/28 07:28:32;;;;;;;11.73;10.55;;;42.20;79.40;;;;;;6197058;23;20017;-93
2022/06/28 07:30:58;;;;;;;11.30;10.25;;;41.60;79.00;;;;;;6196896;23;20013;-93
2022/06/28 07:33:24;;;;;;;13.60;10.70;;;41.40;79.40;;;;;;6194271;23;20442;-93
2022/06/28 07:35:51;;;;;;;15.20;11.57;;;41.20;79.20;;;;;;6193661;23;20052;-92
2022/06/28 07:38:18;;;;;;;13.20;11.60;;;41.30;78.60;;;;;;6195472;23;20013;-93
2022/06/28 07:41:14;;;;;;;12.68;11.48;;;41.40;78.90;;;;;;6223038;23;20308;-93
2022/06/28 07:43:44;;;;;;;15.65;12.23;;;41.70;78.60;;;;;;6223652;23;20016;-92
2022/06/28 07:46:15;;;;;;;17.05;12.48;;;41.40;77.60;;;;;;6223888;23;20064;-93
2022/06/28 07:48:42;;;;;;;18.77;12.07;;;41.70;76.60;;;;;;6195848;23;20016;-92
2022/06/28 07:53:57;;;;;;;15.30;12.48;;;41.30;75.30;;;;;;6221539;23;20007;-92
2022/06/28 07:56:29;;;;;;;13.60;12.10;;;41.20;75.60;;;;;;6202234;23;20054;-93
2022/06/28 07:58:59;;;;;;;21.95;12.63;;;41.20;74.80;;;;;;6202457;23;20028;-92
2022/06/28 08:01:31;;;;;;;16.90;13.32;;;41.40;74.50;;;;;;6202267;23;20004;-92
2022/06/28 08:03:59;;;;;;;23.77;13.75;;;41.40;75.10;;;;;;6197823;23;20076;-93
2022/06/28 08:06:25;;;;;;;51.75;16.73;;;41.60;74.50;;;;;;6196492;23;20008;-94
2022/06/28 08:08:56;;;;;;;35.40;15.77;;;41.70;75.00;;;;;;6197541;23;20394;-93
2022/06/28 08:11:24;;;;;;;15.68;14.18;;;41.80;74.70;;;;;;6208770;23;20087;-93
2022/06/28 08:13:52;;;;;;;24.70;14.80;;;41.60;74.30;;;;;;6204535;23;20000;-94
2022/06/28 08:16:19;;;;;;;18.40;14.18;;;41.50;73.70;;;;;;6192284;23;20875;-93
2022/06/28 08:18:46;;;;;;;14.57;12.95;;;41.50;73.80;;;;;;6196828;23;20027;-94
2022/06/28 08:21:13;;;;;;;17.75;13.90;;;41.20;72.90;;;;;;6196586;23;20062;-93
2022/06/28 08:23:40;;;;;;;16.52;12.18;;;41.00;73.50;;;;;;6197311;23;20434;-92
2022/06/28 08:26:07;;;;;;;13.57;12.13;;;41.20;74.10;;;;;;6223410;23;20031;-94
2022/06/28 08:28:37;;;;;;;13.57;12.15;;;41.40;73.50;;;;;;6198236;23;20008;-94
2022/06/28 08:31:04;;;;;;;12.55;11.45;;;41.30;73.80;;;;;;6198474;23;20426;-92
2022/06/28 08:33:30;;;;;;;22.17;11.73;;;40.60;74.60;;;;;;6198675;23;20015;-92
2022/06/28 08:35:57;;;;;;;22.08;11.45;;;40.00;75.40;;;;;;6209465;23;20004;-92
2022/06/28 08:38:23;;;;;;;19.27;11.80;;;40.20;75.20;;;;;;6187414;23;20042;-94
2022/06/28 08:40:51;;;;;;;13.93;11.45;;;40.50;75.10;;;;;;6211940;23;20009;-93
2022/06/28 08:43:17;;;;;;;12.75;11.40;;;40.50;74.70;;;;;;6179757;23;20053;-92
2022/06/28 08:45:44;;;;;;;17.38;10.98;;;40.70;75.10;;;;;;6205230;23;20012;-93
2022/06/28 08:48:20;;;;;;;13.77;10.90;;;41.00;74.50;;;;;;6172528;23;20010;-93
2022/06/28 08:50:51;;;;;;;15.82;10.55;;;41.40;74.30;;;;;;6167109;23;20435;-92
2022/06/28 08:53:20;;;;;;;17.90;12.15;;;41.40;73.90;;;;;;6195925;23;20013;-93
2022/06/28 08:55:48;;;;;;;16.02;11.00;;;41.90;73.70;;;;;;6175187;23;20008;-93
2022/06/28 08:58:19;;;;;;;13.38;11.68;;;41.80;74.10;;;;;;6179287;23;20092;-94
2022/06/28 09:00:46;;;;;;;13.50;11.48;;;41.60;75.40;;;;;;6177370;23;20013;-93
2022/06/28 09:03:15;;;;;;;13.40;11.60;;;41.40;74.50;;;;;;6171734;23;20009;-93
2022/06/28 09:05:41;;;;;;;13.63;11.02;;;41.10;74.70;;;;;;6172917;23;20335;-93
2022/06/28 09:08:08;;;;;;;18.83;11.90;;;41.10;75.30;;;;;;6164543;23;20013;-93
2022/06/28 09:10:35;;;;;;;20.30;12.48;;;41.20;76.40;;;;;;6161543;23;20088;-93
2022/06/28 09:13:11;;;;;;;17.30;12.50;;;41.10;77.00;;;;;;6162090;23;20012;-95
2022/06/28 09:15:59;;;;;;;13.65;12.25;;;41.30;77.00;;;;;;6170049;23;20009;-95
2022/06/28 09:18:42;;;;;;;21.17;12.43;;;41.00;77.90;;;;;;6192061;23;20005;-92
2022/06/28 09:21:11;;;;;;;;;;;41.10;77.50;;;;;;6194588;23;20015;-93
2022/06/28 09:23:42;;;;;;;18.05;11.98;;;41.10;77.90;;;;;;6197322;23;19904;-93
2022/06/28 09:26:10;;;;;;;17.95;12.00;;;41.20;77.20;;;;;;6197228;23;20016;-93
2022/06/28 09:28:41;;;;;;;13.93;12.05;;;41.50;76.80;;;;;;6196831;23;20031;-93
2022/06/28 09:31:27;;;;;;;17.40;12.40;;;41.90;76.50;;;;;;6196893;23;20077;-92
2022/06/28 09:34:00;;;;;;;14.82;11.75;;;41.40;77.00;;;;;;6197565;23;20448;-92
2022/06/28 09:36:33;;;;;;;14.18;11.63;;;40.40;77.30;;;;;;6198173;23;20015;-93
2022/06/28 09:39:20;;;;;;;20.73;11.20;;;39.80;77.90;;;;;;6196866;23;20009;-92
2022/06/28 09:41:54;;;;;;;19.35;11.35;;;39.80;78.50;;;;;;6197133;23;20096;-92
2022/06/28 09:44:25;;;;;;;14.57;11.02;;;40.10;78.00;;;;;;6197149;23;20008;-93
2022/06/28 09:46:54;;;;;;;16.50;10.80;;;40.20;77.80;;;;;;6200819;23;20015;-91
2022/06/28 09:49:28;;;;;;;16.17;11.50;;;40.10;77.10;;;;;;6225123;23;20050;-93
2022/06/28 09:52:00;;;;;;;19.70;11.48;;;40.20;78.10;;;;;;6221442;23;20491;-92
2022/06/28 09:54:29;;;;;;;20.65;12.55;;;39.70;78.10;;;;;;6196431;23;20430;-92
2022/06/28 09:56:57;;;;;;;18.98;12.57;;;39.30;77.60;;;;;;6192777;23;20020;-91
2022/06/28 09:59:25;;;;;;;29.17;13.27;;;38.70;78.80;;;;;;6193346;23;20012;-92
2022/06/28 10:01:57;;;;;;;80.00;15.82;;;38.60;78.80;;;;;;6193591;23;20415;-91
2022/06/28 10:04:27;;;;;;;24.65;12.23;;;38.80;78.80;;;;;;6194164;23;20013;-92
2022/06/28 10:06:55;;;;;;;13.65;11.23;;;39.10;79.20;;;;;;6197561;23;20450;-91
2022/06/28 10:09:22;;;;;;;15.60;11.32;;;39.70;78.20;;;;;;6196972;23;20013;-92
2022/06/28 10:17:43;;;;;;;20.55;11.70;;;40.40;76.20;;;;;;6222072;23;20007;-92
2022/06/28 10:20:16;;;;;;;16.15;11.40;;;40.60;76.00;;;;;;6196265;23;20004;-91
2022/06/28 10:22:42;;;;;;;13.82;12.25;;;40.60;75.30;;;;;;6193380;23;20028;-92
2022/06/28 10:25:19;;;;;;;18.50;11.00;;;39.90;75.60;;;;;;6191411;23;20028;-91
2022/06/28 10:27:52;;;;;;;15.80;11.90;;;39.00;76.70;;;;;;6191368;23;20013;-92
2022/06/28 10:30:20;;;;;;;12.82;11.20;;;39.00;77.40;;;;;;6191032;23;20069;-92
2022/06/28 10:32:49;;;;;;;11.52;10.68;;;39.10;82.50;;;;;;6190833;23;20083;-92
2022/06/28 10:35:34;;;;;;;11.20;10.30;;;38.50;90.50;;;;;;6191049;23;20008;-91
2022/06/28 10:38:08;;;;;;;11.57;10.40;;;37.90;91.80;;;;;;6191386;23;20016;-93
2022/06/28 10:40:50;;;;;;;11.18;10.40;;;37.40;92.70;;;;;;6191015;23;20013;-92
2022/06/28 10:43:45;;;;;;;32.35;12.88;;;37.70;92.30;;;;;;6191071;23;20015;-92
2022/06/28 10:46:13;;;;;;;14.45;11.07;;;37.70;92.00;;;;;;6191204;23;20087;-92
2022/06/28 10:48:48;;;;;;;11.85;10.70;;;37.70;91.70;;;;;;6190357;23;20058;-92
2022/06/28 10:51:17;;;;;;;14.75;11.45;;;38.20;91.60;;;;;;6190826;23;20005;-93
2022/06/28 10:54:04;;;;;;;12.82;11.50;;;38.40;91.20;;;;;;6190811;23;20002;-92
2022/06/28 10:56:52;;;;;;;12.10;11.10;;;38.80;90.60;;;;;;6190470;23;20005;-92
2022/06/28 10:59:19;;;;;;;15.38;11.10;;;38.90;90.70;;;;;;6164786;23;20039;-92
2022/06/28 11:01:53;;;;;;;12.48;11.18;;;38.90;91.00;;;;;;6163642;23;20032;-94
2022/06/28 11:04:19;;;;;;;14.20;11.85;;;38.70;90.80;;;;;;6165526;23;20018;-93
2022/06/28 11:06:59;;;;;;;11.93;10.93;;;38.90;87.80;;;;;;6165961;23;20016;-92
2022/06/28 11:09:37;;;;;;;12.48;11.40;;;39.10;90.50;;;;;;6166832;23;20012;-92
2022/06/28 11:12:30;;;;;;;12.50;11.40;;;39.20;90.70;;;;;;6165863;23;20009;-92
2022/06/28 11:15:03;;;;;;;15.77;11.70;;;38.60;91.20;;;;;;6165974;23;20004;-93
2022/06/28 11:17:42;;;;;;;14.23;11.65;;;38.40;91.50;;;;;;6160848;23;20005;-93
2022/06/28 11:20:21;;;;;;;13.10;11.30;;;38.40;91.70;;;;;;6162953;23;20013;-92
2022/06/28 11:22:49;;;;;;;11.82;10.82;;;38.10;91.60;;;;;;6160979;23;20009;-92
2022/06/28 11:25:22;;;;;;;12.35;11.15;;;37.90;91.60;;;;;;6188555;23;20008;-94
2022/06/28 11:28:13;;;;;;;14.53;11.70;;;38.10;90.60;;;;;;6160770;23;20013;-94
2022/06/28 11:30:42;;;;;;;15.40;12.02;;;38.70;89.10;;;;;;6165833;23;20004;-93
2022/06/28 11:33:11;;;;;;;13.02;11.65;;;38.90;90.00;;;;;;6162698;23;20005;-93
2022/06/28 11:35:40;;;;;;;13.40;11.90;;;38.90;90.00;;;;;;6161470;23;20009;-93
2022/06/28 11:38:14;;;;;;;12.60;11.30;;;38.80;91.70;;;;;;6162472;23;20025;-93
2022/06/28 11:40:44;;;;;;;13.02;10.98;;;37.90;92.20;;;;;;6161097;23;20013;-93
2022/06/28 11:43:14;;;;;;;11.60;10.70;;;37.60;92.80;;;;;;6162819;23;20091;-92
2022/06/28 11:45:47;;;;;;;14.07;10.82;;;37.50;93.20;;;;;;6160854;23;20378;-93
2022/06/28 11:48:17;;;;;;;12.23;10.90;;;37.50;92.60;;;;;;6170527;23;20009;-93
2022/06/28 11:50:56;;;;;;;11.93;11.00;;;37.50;93.50;;;;;;6166128;23;20005;-93
2022/06/28 11:53:24;;;;;;;12.27;11.07;;;37.30;92.70;;;;;;6155052;23;20443;-92
2022/06/28 11:55:54;;;;;;;13.52;11.82;;;37.60;92.50;;;;;;6160616;23;20382;-93
2022/06/28 11:58:32;;;;;;;15.20;11.95;;;37.60;92.60;;;;;;6164936;23;20029;-92
2022/06/28 12:01:14;;;;;;;12.70;11.63;;;37.70;92.30;;;;;;6162596;23;20013;-92
2022/06/28 12:03:43;;;;;;;13.18;11.30;;;37.40;92.30;;;;;;6167768;23;20031;-92
2022/06/28 12:06:12;;;;;;;11.93;11.13;;;37.40;91.90;;;;;;6167838;23;20010;-92
2022/06/28 12:08:49;;;;;;;12.77;11.65;;;37.30;92.30;;;;;;6168062;23;20048;-92
2022/06/28 12:11:29;;;;;;;13.45;12.13;;;37.20;92.30;;;;;;6167913;23;20004;-92
2022/06/28 12:14:17;;;;;;;12.73;11.52;;;37.10;92.60;;;;;;6167941;23;20028;-93
2022/06/28 12:16:59;;;;;;;13.07;11.57;;;37.00;92.60;;;;;;6159281;23;20021;-93
2022/06/28 12:19:31;;;;;;;12.52;11.43;;;36.90;92.80;;;;;;6150510;23;20013;-93
2022/06/28 12:22:07;;;;;;;16.15;12.32;;;36.80;93.30;;;;;;6187453;23;20395;-93
2022/06/28 12:24:44;;;;;;;12.80;11.52;;;36.80;93.10;;;;;;6193215;23;20100;-92
2022/06/28 12:27:17;;;;;;;15.23;11.55;;;36.80;93.40;;;;;;6164942;23;20092;-92
2022/06/28 12:29:44;;;;;;;17.08;12.27;;;36.60;93.50;;;;;;6162946;23;20009;-93
2022/06/28 12:32:11;;;;;;;14.43;11.80;;;36.90;93.30;;;;;;6166065;23;20024;-93
2022/06/28 12:34:40;;;;;;;19.30;11.80;;;36.80;93.50;;;;;;6163996;23;20142;-93
2022/06/28 12:37:11;;;;;;;12.70;11.55;;;36.80;93.20;;;;;;6165209;23;20008;-92
2022/06/28 12:39:38;;;;;;;14.35;11.60;;;36.70;93.30;;;;;;6163444;23;20020;-91
2022/06/28 12:42:08;;;;;;;12.43;11.13;;;36.80;93.30;;;;;;6190514;23;20423;-92
2022/06/28 12:44:36;;;;;;;13.15;11.45;;;36.60;93.00;;;;;;6165711;23;20482;-93
2022/06/28 12:47:03;;;;;;;12.50;11.27;;;36.80;93.20;;;;;;6153737;23;20343;-93
2022/06/28 12:49:30;;;;;;;12.02;11.23;;;36.80;93.30;;;;;;6162216;23;20033;-92
2022/06/28 12:51:56;;;;;;;11.80;10.90;;;36.80;93.10;;;;;;6162110;23;20030;-94
2022/06/28 12:54:23;;;;;;;12.63;11.43;;;37.20;92.80;;;;;;6168705;23;20012;-92
2022/06/28 12:56:50;;;;;;;12.45;11.35;;;37.10;92.80;;;;;;6175962;23;20080;-92
2022/06/28 12:59:16;;;;;;;12.02;10.93;;;37.20;92.40;;;;;;6220585;23;20036;-93
2022/06/28 13:01:43;;;;;;;14.90;11.30;;;36.90;92.50;;;;;;6192999;23;20009;-93
2022/06/28 13:04:11;;;;;;;12.85;11.60;;;36.80;92.90;;;;;;6192186;23;20008;-92
2022/06/28 13:06:42;;;;;;;12.70;10.98;;;37.10;92.50;;;;;;6217307;23;20020;-92
2022/06/28 13:09:09;;;;;;;12.77;11.45;;;37.20;92.30;;;;;;6217009;23;20016;-92
2022/06/28 13:11:36;;;;;;;12.30;11.13;;;37.60;92.40;;;;;;6195298;23;20001;-93
2022/06/28 13:14:03;;;;;;;12.82;11.30;;;37.70;92.10;;;;;;6223785;23;20011;-92
2022/06/28 13:16:30;;;;;;;14.27;11.23;;;37.50;92.20;;;;;;6194632;23;20017;-92